sensor_id;sensor_type;location;lat;lon;timestamp;pressure;altitude;pressure_sealevel;temperature;humidity
59407;BME280;45208;32.616;-115.472;2022-08-01T00:02:18;100982.03;;;46.45;17.43
59407;BME280;45208;32.616;-115.472;2022-08-01T00:04:44;100987.72;;;44.23;20.77
59407;BME280;45208;32.616;-115.472;2022-08-01T00:07:11;100978.91;;;42.83;22.67
59407;BME280;45208;32.616;-115.472;2022-08-01T00:09:38;100980.25;;;43.39;22.10
59407;BME280;45208;32.616;-115.472;2022-08-01T00:12:05;100967.72;;;41.33;24.75
59407;BME280;45208;32.616;-115.472;2022-08-01T00:14:31;100952.84;;;40.98;25.21
59407;BME280;45208;32.616;-115.472;2022-08-01T00:16:59;100969.09;;;41.29;25.27
59407;BME280;45208;32.616;-115.472;2022-08-01T00:19:25;100979.53;;;41.14;24.91
59407;BME280;45208;32.616;-115.472;2022-08-01T00:21:52;100965.03;;;41.57;24.21
59407;BME280;45208;32.616;-115.472;2022-08-01T00:24:18;100962.81;;;41.52;24.34
59407;BME280;45208;32.616;-115.472;2022-08-01T00:26:45;100963.22;;;40.30;26.02
59407;BME280;45208;32.616;-115.472;2022-08-01T00:29:12;100971.13;;;39.92;25.98
59407;BME280;45208;32.616;-115.472;2022-08-01T00:31:40;100960.44;;;39.96;25.74
59407;BME280;45208;32.616;-115.472;2022-08-01T00:34:07;100959.66;;;40.39;24.74
59407;BME280;45208;32.616;-115.472;2022-08-01T00:36:34;100950.16;;;40.20;24.66
59407;BME280;45208;32.616;-115.472;2022-08-01T00:39:01;100956.66;;;40.95;23.32
59407;BME280;45208;32.616;-115.472;2022-08-01T00:41:27;100945.97;;;40.56;22.43
59407;BME280;45208;32.616;-115.472;2022-08-01T00:43:54;100951.75;;;41.05;21.03
59407;BME280;45208;32.616;-115.472;2022-08-01T00:46:21;100955.88;;;40.73;19.20
59407;BME280;45208;32.616;-115.472;2022-08-01T00:48:47;100940.72;;;40.45;17.69
59407;BME280;45208;32.616;-115.472;2022-08-01T00:51:14;100951.03;;;40.52;17.91
59407;BME280;45208;32.616;-115.472;2022-08-01T00:53:42;100944.63;;;41.00;18.54
59407;BME280;45208;32.616;-115.472;2022-08-01T00:56:09;100943.56;;;41.16;18.35
59407;BME280;45208;32.616;-115.472;2022-08-01T00:58:37;100945.94;;;41.18;18.27
59407;BME280;45208;32.616;-115.472;2022-08-01T01:01:04;100934.72;;;40.30;19.74
59407;BME280;45208;32.616;-115.472;2022-08-01T01:03:30;100934.44;;;39.72;20.60
59407;BME280;45208;32.616;-115.472;2022-08-01T01:08:42;100929.59;;;39.47;20.90
59407;BME280;45208;32.616;-115.472;2022-08-01T01:11:26;100940.78;;;39.28;21.90
59407;BME280;45208;32.616;-115.472;2022-08-01T01:14:05;100936.88;;;39.61;22.17
59407;BME280;45208;32.616;-115.472;2022-08-01T01:16:37;100938.78;;;38.65;22.46
59407;BME280;45208;32.616;-115.472;2022-08-01T01:19:11;100942.97;;;38.99;20.66
59407;BME280;45208;32.616;-115.472;2022-08-01T01:24:58;100959.78;;;39.06;21.26
59407;BME280;45208;32.616;-115.472;2022-08-01T01:27:57;100957.84;;;39.28;21.15
59407;BME280;45208;32.616;-115.472;2022-08-01T01:30:30;100959.81;;;39.66;20.41
59407;BME280;45208;32.616;-115.472;2022-08-01T01:33:02;100967.09;;;39.20;19.94
59407;BME280;45208;32.616;-115.472;2022-08-01T01:35:32;100961.75;;;39.09;20.57
59407;BME280;45208;32.616;-115.472;2022-08-01T01:38:05;100969.09;;;38.68;21.46
59407;BME280;45208;32.616;-115.472;2022-08-01T01:40:34;100972.16;;;38.61;22.17
59407;BME280;45208;32.616;-115.472;2022-08-01T01:43:02;100977.56;;;38.43;21.80
59407;BME280;45208;32.616;-115.472;2022-08-01T01:45:29;100978.63;;;38.20;21.91
59407;BME280;45208;32.616;-115.472;2022-08-01T01:47:58;100979.16;;;38.15;22.25
59407;BME280;45208;32.616;-115.472;2022-08-01T01:50:26;100981.69;;;37.97;23.45
59407;BME280;45208;32.616;-115.472;2022-08-01T01:52:54;100986.03;;;38.01;23.63
59407;BME280;45208;32.616;-115.472;2022-08-01T01:55:24;100984.44;;;38.00;23.59
59407;BME280;45208;32.616;-115.472;2022-08-01T01:57:52;100986.97;;;37.66;22.22
59407;BME280;45208;32.616;-115.472;2022-08-01T02:00:20;100997.25;;;37.27;22.52
59407;BME280;45208;32.616;-115.472;2022-08-01T02:02:49;100991.19;;;37.09;23.14
59407;BME280;45208;32.616;-115.472;2022-08-01T02:05:16;100996.03;;;36.92;24.70
59407;BME280;45208;32.616;-115.472;2022-08-01T02:07:43;100998.63;;;37.03;24.15
59407;BME280;45208;32.616;-115.472;2022-08-01T02:10:12;100998.09;;;37.08;24.51
59407;BME280;45208;32.616;-115.472;2022-08-01T02:12:41;101013.84;;;36.92;25.23
59407;BME280;45208;32.616;-115.472;2022-08-01T02:15:12;101002.94;;;36.71;25.58
59407;BME280;45208;32.616;-115.472;2022-08-01T02:17:44;101007.84;;;36.51;25.50
59407;BME280;45208;32.616;-115.472;2022-08-01T02:20:13;101009.00;;;36.34;26.25
59407;BME280;45208;32.616;-115.472;2022-08-01T02:23:06;101015.97;;;36.49;27.16
59407;BME280;45208;32.616;-115.472;2022-08-01T02:25:33;101024.72;;;36.15;30.09
59407;BME280;45208;32.616;-115.472;2022-08-01T02:28:06;101027.50;;;35.95;29.93
59407;BME280;45208;32.616;-115.472;2022-08-01T02:30:35;101023.19;;;35.87;29.58
59407;BME280;45208;32.616;-115.472;2022-08-01T02:33:05;101027.44;;;35.75;30.58
59407;BME280;45208;32.616;-115.472;2022-08-01T02:35:35;101033.31;;;35.61;30.20
59407;BME280;45208;32.616;-115.472;2022-08-01T02:38:06;101044.50;;;35.45;29.54
59407;BME280;45208;32.616;-115.472;2022-08-01T02:40:38;101040.75;;;35.51;29.19
59407;BME280;45208;32.616;-115.472;2022-08-01T02:43:08;101050.66;;;35.36;28.11
59407;BME280;45208;32.616;-115.472;2022-08-01T02:45:39;101055.56;;;35.32;27.89
59407;BME280;45208;32.616;-115.472;2022-08-01T02:48:13;101067.72;;;35.29;28.05
59407;BME280;45208;32.616;-115.472;2022-08-01T02:50:44;101069.16;;;35.13;29.36
59407;BME280;45208;32.616;-115.472;2022-08-01T02:53:13;101064.84;;;35.05;30.57
59407;BME280;45208;32.616;-115.472;2022-08-01T02:55:44;101066.13;;;34.97;32.09
59407;BME280;45208;32.616;-115.472;2022-08-01T02:58:17;101066.72;;;34.85;33.34
59407;BME280;45208;32.616;-115.472;2022-08-01T03:00:46;101073.38;;;34.68;34.08
59407;BME280;45208;32.616;-115.472;2022-08-01T03:03:14;101085.47;;;34.68;34.13
59407;BME280;45208;32.616;-115.472;2022-08-01T03:05:43;101073.09;;;34.55;34.82
59407;BME280;45208;32.616;-115.472;2022-08-01T03:08:13;101070.44;;;34.41;35.36
59407;BME280;45208;32.616;-115.472;2022-08-01T03:10:43;101074.91;;;34.38;35.07
59407;BME280;45208;32.616;-115.472;2022-08-01T03:13:11;101079.31;;;34.39;34.98
59407;BME280;45208;32.616;-115.472;2022-08-01T03:15:40;101072.94;;;34.35;34.91
59407;BME280;45208;32.616;-115.472;2022-08-01T03:18:12;101091.94;;;34.24;35.03
59407;BME280;45208;32.616;-115.472;2022-08-01T03:20:40;101087.53;;;34.23;34.94
59407;BME280;45208;32.616;-115.472;2022-08-01T03:23:11;101089.66;;;34.12;35.09
59407;BME280;45208;32.616;-115.472;2022-08-01T03:25:43;101103.44;;;34.03;34.82
59407;BME280;45208;32.616;-115.472;2022-08-01T03:28:13;101100.69;;;33.96;34.92
59407;BME280;45208;32.616;-115.472;2022-08-01T03:30:42;101105.03;;;34.04;34.96
59407;BME280;45208;32.616;-115.472;2022-08-01T03:33:10;101106.75;;;33.90;34.96
59407;BME280;45208;32.616;-115.472;2022-08-01T03:35:42;101103.22;;;33.79;35.29
59407;BME280;45208;32.616;-115.472;2022-08-01T03:38:13;101104.84;;;33.73;36.05
59407;BME280;45208;32.616;-115.472;2022-08-01T03:41:25;101115.75;;;33.71;36.34
59407;BME280;45208;32.616;-115.472;2022-08-01T03:44:02;101116.22;;;33.62;36.41
59407;BME280;45208;32.616;-115.472;2022-08-01T03:46:35;101114.66;;;33.54;36.25
59407;BME280;45208;32.616;-115.472;2022-08-01T03:49:14;101125.09;;;33.61;36.08
59407;BME280;45208;32.616;-115.472;2022-08-01T03:51:43;101125.56;;;33.49;36.35
59407;BME280;45208;32.616;-115.472;2022-08-01T03:54:11;101139.59;;;33.56;36.59
59407;BME280;45208;32.616;-115.472;2022-08-01T03:56:40;101153.41;;;33.40;37.23
59407;BME280;45208;32.616;-115.472;2022-08-01T03:59:09;101158.22;;;33.43;37.34
59407;BME280;45208;32.616;-115.472;2022-08-01T04:01:36;101159.84;;;33.37;37.42
59407;BME280;45208;32.616;-115.472;2022-08-01T04:04:03;101162.69;;;33.40;38.34
59407;BME280;45208;32.616;-115.472;2022-08-01T04:06:32;101166.75;;;33.25;38.59
59407;BME280;45208;32.616;-115.472;2022-08-01T04:08:59;101168.41;;;33.12;38.99
59407;BME280;45208;32.616;-115.472;2022-08-01T04:11:27;101164.81;;;33.04;39.59
59407;BME280;45208;32.616;-115.472;2022-08-01T04:13:55;101183.72;;;33.07;39.39
59407;BME280;45208;32.616;-115.472;2022-08-01T04:16:22;101186.13;;;33.09;39.52
59407;BME280;45208;32.616;-115.472;2022-08-01T04:18:48;101191.75;;;33.09;39.68
59407;BME280;45208;32.616;-115.472;2022-08-01T04:21:18;101186.91;;;33.13;39.55
59407;BME280;45208;32.616;-115.472;2022-08-01T04:23:49;101188.53;;;33.03;39.46
59407;BME280;45208;32.616;-115.472;2022-08-01T04:26:18;101190.56;;;33.06;39.47
59407;BME280;45208;32.616;-115.472;2022-08-01T04:28:47;101196.19;;;32.99;39.13
59407;BME280;45208;32.616;-115.472;2022-08-01T04:31:17;101199.03;;;32.92;39.21
59407;BME280;45208;32.616;-115.472;2022-08-01T04:33:48;101205.06;;;32.97;39.28
59407;BME280;45208;32.616;-115.472;2022-08-01T04:36:18;101204.31;;;32.86;39.77
59407;BME280;45208;32.616;-115.472;2022-08-01T04:38:48;101192.22;;;32.75;39.58
59407;BME280;45208;32.616;-115.472;2022-08-01T04:41:17;101194.22;;;32.74;39.85
59407;BME280;45208;32.616;-115.472;2022-08-01T04:43:44;101202.66;;;32.67;39.57
59407;BME280;45208;32.616;-115.472;2022-08-01T04:46:13;101198.66;;;32.68;39.61
59407;BME280;45208;32.616;-115.472;2022-08-01T04:48:40;101202.69;;;32.64;40.02
59407;BME280;45208;32.616;-115.472;2022-08-01T04:51:17;101205.09;;;32.58;40.21
59407;BME280;45208;32.616;-115.472;2022-08-01T04:53:48;101203.09;;;32.55;40.93
59407;BME280;45208;32.616;-115.472;2022-08-01T04:56:18;101207.53;;;32.56;41.28
59407;BME280;45208;32.616;-115.472;2022-08-01T04:58:45;101199.91;;;32.39;42.17
59407;BME280;45208;32.616;-115.472;2022-08-01T05:01:12;101191.47;;;32.32;42.58
59407;BME280;45208;32.616;-115.472;2022-08-01T05:03:40;101201.09;;;32.38;42.68
59407;BME280;45208;32.616;-115.472;2022-08-01T05:06:06;101212.34;;;32.27;43.08
59407;BME280;45208;32.616;-115.472;2022-08-01T05:08:33;101204.69;;;32.21;43.94
59407;BME280;45208;32.616;-115.472;2022-08-01T05:11:02;101204.28;;;32.11;44.12
59407;BME280;45208;32.616;-115.472;2022-08-01T05:13:28;101204.28;;;32.08;44.73
59407;BME280;45208;32.616;-115.472;2022-08-01T05:15:55;101217.94;;;32.09;44.64
59407;BME280;45208;32.616;-115.472;2022-08-01T05:18:22;101211.50;;;32.05;45.34
59407;BME280;45208;32.616;-115.472;2022-08-01T05:20:49;101208.28;;;32.07;45.50
59407;BME280;45208;32.616;-115.472;2022-08-01T05:23:15;101216.72;;;31.96;45.95
59407;BME280;45208;32.616;-115.472;2022-08-01T05:25:42;101210.69;;;31.94;46.30
59407;BME280;45208;32.616;-115.472;2022-08-01T05:28:09;101211.47;;;31.88;47.17
59407;BME280;45208;32.616;-115.472;2022-08-01T05:30:35;101211.88;;;31.90;46.90
59407;BME280;45208;32.616;-115.472;2022-08-01T05:33:02;101211.06;;;31.82;47.35
59407;BME280;45208;32.616;-115.472;2022-08-01T05:35:29;101213.88;;;31.82;47.91
59407;BME280;45208;32.616;-115.472;2022-08-01T05:37:55;101215.47;;;31.76;48.67
59407;BME280;45208;32.616;-115.472;2022-08-01T05:40:22;101215.41;;;31.69;49.29
59407;BME280;45208;32.616;-115.472;2022-08-01T05:42:49;101201.31;;;31.54;49.34
59407;BME280;45208;32.616;-115.472;2022-08-01T05:45:15;101208.59;;;31.63;49.91
59407;BME280;45208;32.616;-115.472;2022-08-01T05:47:42;101219.81;;;31.63;49.62
59407;BME280;45208;32.616;-115.472;2022-08-01T05:50:15;101212.94;;;31.46;50.49
59407;BME280;45208;32.616;-115.472;2022-08-01T05:52:41;101225.78;;;31.47;52.01
59407;BME280;45208;32.616;-115.472;2022-08-01T05:55:08;101225.34;;;31.41;52.78
59407;BME280;45208;32.616;-115.472;2022-08-01T05:57:35;101226.50;;;31.26;53.46
59407;BME280;45208;32.616;-115.472;2022-08-01T06:00:02;101232.16;;;31.33;53.52
59407;BME280;45208;32.616;-115.472;2022-08-01T06:02:40;101238.50;;;31.23;53.15
59407;BME280;45208;32.616;-115.472;2022-08-01T06:05:09;101236.94;;;31.29;53.51
59407;BME280;45208;32.616;-115.472;2022-08-01T06:07:36;101241.31;;;31.23;54.63
59407;BME280;45208;32.616;-115.472;2022-08-01T06:10:05;101244.91;;;31.20;54.53
59407;BME280;45208;32.616;-115.472;2022-08-01T06:12:35;101247.72;;;31.20;55.20
59407;BME280;45208;32.616;-115.472;2022-08-01T06:15:04;101244.03;;;31.09;55.56
59407;BME280;45208;32.616;-115.472;2022-08-01T06:17:30;101242.38;;;31.04;56.06
59407;BME280;45208;32.616;-115.472;2022-08-01T06:19:57;101235.16;;;31.00;56.51
59407;BME280;45208;32.616;-115.472;2022-08-01T06:22:24;101224.69;;;30.89;57.20
59407;BME280;45208;32.616;-115.472;2022-08-01T06:24:51;101247.16;;;30.93;58.06
59407;BME280;45208;32.616;-115.472;2022-08-01T06:27:18;101241.06;;;30.87;58.56
59407;BME280;45208;32.616;-115.472;2022-08-01T06:29:44;101234.19;;;30.74;58.56
59407;BME280;45208;32.616;-115.472;2022-08-01T06:32:11;101242.28;;;30.86;58.84
59407;BME280;45208;32.616;-115.472;2022-08-01T06:34:38;101237.00;;;30.74;58.97
59407;BME280;45208;32.616;-115.472;2022-08-01T06:37:05;101243.81;;;30.77;59.80
59407;BME280;45208;32.616;-115.472;2022-08-01T06:39:31;101256.28;;;30.79;60.03
59407;BME280;45208;32.616;-115.472;2022-08-01T06:41:58;101256.63;;;30.74;60.09
59407;BME280;45208;32.616;-115.472;2022-08-01T06:44:25;101256.53;;;30.63;60.26
59407;BME280;45208;32.616;-115.472;2022-08-01T06:46:51;101262.09;;;30.60;60.62
59407;BME280;45208;32.616;-115.472;2022-08-01T06:49:18;101257.28;;;30.57;60.76
59407;BME280;45208;32.616;-115.472;2022-08-01T06:51:45;101252.38;;;30.47;60.00
59407;BME280;45208;32.616;-115.472;2022-08-01T06:54:11;101242.72;;;30.41;61.04
59407;BME280;45208;32.616;-115.472;2022-08-01T06:56:38;101248.31;;;30.41;60.51
59407;BME280;45208;32.616;-115.472;2022-08-01T06:59:05;101253.56;;;30.46;60.70
59407;BME280;45208;32.616;-115.472;2022-08-01T07:01:31;101249.94;;;30.42;60.26
59407;BME280;45208;32.616;-115.472;2022-08-01T07:03:58;101254.72;;;30.41;60.12
59407;BME280;45208;32.616;-115.472;2022-08-01T07:06:25;101261.94;;;30.42;60.44
59407;BME280;45208;32.616;-115.472;2022-08-01T07:08:52;101260.34;;;30.41;60.04
59407;BME280;45208;32.616;-115.472;2022-08-01T07:11:20;101257.09;;;30.35;60.24
59407;BME280;45208;32.616;-115.472;2022-08-01T07:13:47;101258.59;;;30.26;59.40
59407;BME280;45208;32.616;-115.472;2022-08-01T07:16:14;101258.22;;;30.27;60.29
59407;BME280;45208;32.616;-115.472;2022-08-01T07:18:42;101263.34;;;30.18;60.67
59407;BME280;45208;32.616;-115.472;2022-08-01T07:21:09;101265.28;;;30.14;61.13
59407;BME280;45208;32.616;-115.472;2022-08-01T07:23:36;101271.66;;;30.11;61.18
59407;BME280;45208;32.616;-115.472;2022-08-01T07:26:03;101269.22;;;30.06;60.90
59407;BME280;45208;32.616;-115.472;2022-08-01T07:28:30;101277.69;;;30.13;61.69
59407;BME280;45208;32.616;-115.472;2022-08-01T07:30:57;101276.44;;;30.07;61.12
59407;BME280;45208;32.616;-115.472;2022-08-01T07:33:24;101268.84;;;30.07;61.91
59407;BME280;45208;32.616;-115.472;2022-08-01T07:35:50;101276.75;;;30.02;62.21
59407;BME280;45208;32.616;-115.472;2022-08-01T07:38:17;101275.25;;;30.08;62.35
59407;BME280;45208;32.616;-115.472;2022-08-01T07:40:44;101275.97;;;30.01;62.98
59407;BME280;45208;32.616;-115.472;2022-08-01T07:43:11;101275.84;;;29.94;63.09
59407;BME280;45208;32.616;-115.472;2022-08-01T07:45:38;101273.03;;;29.91;63.58
59407;BME280;45208;32.616;-115.472;2022-08-01T07:48:05;101277.00;;;29.90;64.14
59407;BME280;45208;32.616;-115.472;2022-08-01T07:50:33;101277.00;;;29.90;64.47
59407;BME280;45208;32.616;-115.472;2022-08-01T07:53:00;101272.56;;;29.85;64.55
59407;BME280;45208;32.616;-115.472;2022-08-01T07:55:26;101268.78;;;29.70;65.30
59407;BME280;45208;32.616;-115.472;2022-08-01T07:57:53;101265.97;;;29.70;65.39
59407;BME280;45208;32.616;-115.472;2022-08-01T08:00:20;101267.56;;;29.68;66.03
59407;BME280;45208;32.616;-115.472;2022-08-01T08:02:46;101262.34;;;29.66;65.80
59407;BME280;45208;32.616;-115.472;2022-08-01T08:05:13;101265.91;;;29.63;66.28
59407;BME280;45208;32.616;-115.472;2022-08-01T08:07:40;101266.34;;;29.65;66.20
59407;BME280;45208;32.616;-115.472;2022-08-01T08:10:07;101264.28;;;29.62;65.61
59407;BME280;45208;32.616;-115.472;2022-08-01T08:12:34;101267.47;;;29.61;66.82
59407;BME280;45208;32.616;-115.472;2022-08-01T08:15:00;101256.97;;;29.54;67.13
59407;BME280;45208;32.616;-115.472;2022-08-01T08:17:27;101257.81;;;29.58;67.57
59407;BME280;45208;32.616;-115.472;2022-08-01T08:19:54;101269.78;;;29.55;67.06
59407;BME280;45208;32.616;-115.472;2022-08-01T08:22:20;101266.53;;;29.50;67.69
59407;BME280;45208;32.616;-115.472;2022-08-01T08:24:47;101270.91;;;29.47;67.66
59407;BME280;45208;32.616;-115.472;2022-08-01T08:27:14;101261.59;;;29.43;67.80
59407;BME280;45208;32.616;-115.472;2022-08-01T08:29:41;101270.31;;;29.34;68.42
59407;BME280;45208;32.616;-115.472;2022-08-01T08:32:08;101265.53;;;29.38;68.86
59407;BME280;45208;32.616;-115.472;2022-08-01T08:34:35;101268.69;;;29.33;68.58
59407;BME280;45208;32.616;-115.472;2022-08-01T08:37:02;101268.22;;;29.28;68.88
59407;BME280;45208;32.616;-115.472;2022-08-01T08:39:29;101271.03;;;29.28;68.48
59407;BME280;45208;32.616;-115.472;2022-08-01T08:42:06;101263.66;;;29.16;68.90
59407;BME280;45208;32.616;-115.472;2022-08-01T08:44:33;101269.28;;;29.19;69.46
59407;BME280;45208;32.616;-115.472;2022-08-01T08:47:02;101269.16;;;29.09;69.43
59407;BME280;45208;32.616;-115.472;2022-08-01T08:49:32;101274.03;;;29.15;69.20
59407;BME280;45208;32.616;-115.472;2022-08-01T08:52:00;101272.84;;;29.16;69.69
59407;BME280;45208;32.616;-115.472;2022-08-01T08:54:28;101274.75;;;29.09;69.75
59407;BME280;45208;32.616;-115.472;2022-08-01T08:56:56;101267.47;;;29.04;70.05
59407;BME280;45208;32.616;-115.472;2022-08-01T08:59:23;101269.88;;;29.06;69.51
59407;BME280;45208;32.616;-115.472;2022-08-01T09:01:50;101259.44;;;29.03;69.38
59407;BME280;45208;32.616;-115.472;2022-08-01T09:04:18;101264.72;;;29.08;69.77
59407;BME280;45208;32.616;-115.472;2022-08-01T09:06:47;101256.97;;;28.98;69.55
59407;BME280;45208;32.616;-115.472;2022-08-01T09:09:14;101260.97;;;28.97;70.37
59407;BME280;45208;32.616;-115.472;2022-08-01T09:11:40;101258.13;;;28.93;70.05
59407;BME280;45208;32.616;-115.472;2022-08-01T09:14:15;101253.63;;;28.88;70.26
59407;BME280;45208;32.616;-115.472;2022-08-01T09:17:00;101251.63;;;28.89;71.12
59407;BME280;45208;32.616;-115.472;2022-08-01T09:19:42;101259.16;;;28.85;70.75
59407;BME280;45208;32.616;-115.472;2022-08-01T09:22:12;101257.44;;;28.77;71.31
59407;BME280;45208;32.616;-115.472;2022-08-01T09:24:40;101254.63;;;28.77;71.87
59407;BME280;45208;32.616;-115.472;2022-08-01T09:27:19;101248.72;;;28.82;71.73
59407;BME280;45208;32.616;-115.472;2022-08-01T09:29:46;101247.84;;;28.78;71.91
59407;BME280;45208;32.616;-115.472;2022-08-01T09:32:13;101248.53;;;28.71;72.16
59407;BME280;45208;32.616;-115.472;2022-08-01T09:34:39;101243.69;;;28.68;73.21
59407;BME280;45208;32.616;-115.472;2022-08-01T09:37:06;101250.06;;;28.65;72.74
59407;BME280;45208;32.616;-115.472;2022-08-01T09:39:35;101250.84;;;28.66;72.99
59407;BME280;45208;32.616;-115.472;2022-08-01T09:44:47;101241.72;;;28.69;73.45
59407;BME280;45208;32.616;-115.472;2022-08-01T09:47:15;101251.66;;;28.66;73.35
59407;BME280;45208;32.616;-115.472;2022-08-01T09:49:43;101262.91;;;28.70;73.90
59407;BME280;45208;32.616;-115.472;2022-08-01T09:52:15;101258.50;;;28.69;73.55
59407;BME280;45208;32.616;-115.472;2022-08-01T09:54:52;101245.59;;;28.61;73.67
59407;BME280;45208;32.616;-115.472;2022-08-01T09:57:20;101246.34;;;28.57;74.07
59407;BME280;45208;32.616;-115.472;2022-08-01T09:59:52;101253.53;;;28.58;73.68
59407;BME280;45208;32.616;-115.472;2022-08-01T10:02:36;101251.56;;;28.59;74.19
59407;BME280;45208;32.616;-115.472;2022-08-01T10:05:06;101262.69;;;28.55;74.38
59407;BME280;45208;32.616;-115.472;2022-08-01T10:07:34;101265.78;;;28.50;74.47
59407;BME280;45208;32.616;-115.472;2022-08-01T10:10:15;101257.72;;;28.45;74.85
59407;BME280;45208;32.616;-115.472;2022-08-01T10:12:42;101254.53;;;28.47;75.05
59407;BME280;45208;32.616;-115.472;2022-08-01T10:15:09;101266.53;;;28.47;75.04
59407;BME280;45208;32.616;-115.472;2022-08-01T10:17:39;101268.16;;;28.48;75.38
59407;BME280;45208;32.616;-115.472;2022-08-01T10:20:06;101271.31;;;28.47;75.66
59407;BME280;45208;32.616;-115.472;2022-08-01T10:22:34;101266.47;;;28.44;75.35
59407;BME280;45208;32.616;-115.472;2022-08-01T10:25:03;101269.75;;;28.49;75.44
59407;BME280;45208;32.616;-115.472;2022-08-01T10:27:32;101274.00;;;28.40;75.45
59407;BME280;45208;32.616;-115.472;2022-08-01T10:30:03;101275.66;;;28.44;75.15
59407;BME280;45208;32.616;-115.472;2022-08-01T10:32:32;101273.00;;;28.51;76.06
59407;BME280;45208;32.616;-115.472;2022-08-01T10:35:00;101267.28;;;28.44;76.11
59407;BME280;45208;32.616;-115.472;2022-08-01T10:37:27;101264.81;;;28.39;76.16
59407;BME280;45208;32.616;-115.472;2022-08-01T10:39:54;101256.78;;;28.38;76.70
59407;BME280;45208;32.616;-115.472;2022-08-01T10:42:21;101256.78;;;28.38;76.38
59407;BME280;45208;32.616;-115.472;2022-08-01T10:44:49;101260.41;;;28.38;76.87
59407;BME280;45208;32.616;-115.472;2022-08-01T10:47:18;101244.66;;;28.30;76.43
59407;BME280;45208;32.616;-115.472;2022-08-01T10:49:51;101264.50;;;28.44;77.03
59407;BME280;45208;32.616;-115.472;2022-08-01T10:52:20;101256.78;;;28.38;76.54
59407;BME280;45208;32.616;-115.472;2022-08-01T10:54:47;101261.44;;;28.30;77.39
59407;BME280;45208;32.616;-115.472;2022-08-01T10:57:14;101264.22;;;28.30;77.07
59407;BME280;45208;32.616;-115.472;2022-08-01T10:59:51;101283.06;;;28.33;77.95
59407;BME280;45208;32.616;-115.472;2022-08-01T11:02:30;101267.91;;;28.34;78.10
59407;BME280;45208;32.616;-115.472;2022-08-01T11:05:09;101273.38;;;28.27;77.38
59407;BME280;45208;32.616;-115.472;2022-08-01T11:07:51;101279.78;;;28.27;77.93
59407;BME280;45208;32.616;-115.472;2022-08-01T11:12:50;101268.50;;;28.24;78.16
59407;BME280;45208;32.616;-115.472;2022-08-01T11:15:18;101262.03;;;28.20;77.74
59407;BME280;45208;32.616;-115.472;2022-08-01T11:17:56;101256.44;;;28.20;77.96
59407;BME280;45208;32.616;-115.472;2022-08-01T11:20:27;101266.72;;;28.16;78.94
59407;BME280;45208;32.616;-115.472;2022-08-01T11:30:48;101281.94;;;28.18;78.74
59407;BME280;45208;32.616;-115.472;2022-08-01T11:33:18;101279.47;;;28.13;78.68
59407;BME280;45208;32.616;-115.472;2022-08-01T11:41:25;101275.44;;;28.11;78.20
59407;BME280;45208;32.616;-115.472;2022-08-01T11:44:16;101287.34;;;28.08;78.85
59407;BME280;45208;32.616;-115.472;2022-08-01T11:46:53;101288.59;;;28.10;78.40
59407;BME280;45208;32.616;-115.472;2022-08-01T11:52:24;101292.50;;;28.06;78.90
59407;BME280;45208;32.616;-115.472;2022-08-01T11:55:06;101292.34;;;27.98;78.99
59407;BME280;45208;32.616;-115.472;2022-08-01T11:57:33;101287.94;;;27.97;79.15
59407;BME280;45208;32.616;-115.472;2022-08-01T12:00:13;101300.03;;;28.02;79.35
59407;BME280;45208;32.616;-115.472;2022-08-01T12:02:41;101308.03;;;28.03;79.11
59407;BME280;45208;32.616;-115.472;2022-08-01T12:05:10;101308.31;;;27.98;78.99
59407;BME280;45208;32.616;-115.472;2022-08-01T12:07:41;101304.72;;;27.97;79.39
59407;BME280;45208;32.616;-115.472;2022-08-01T12:10:11;101316.63;;;27.94;79.50
59407;BME280;45208;32.616;-115.472;2022-08-01T12:12:48;101318.69;;;27.97;79.69
59407;BME280;45208;32.616;-115.472;2022-08-01T12:15:15;101311.09;;;27.98;79.87
59407;BME280;45208;32.616;-115.472;2022-08-01T12:17:47;101307.81;;;27.92;80.22
59407;BME280;45208;32.616;-115.472;2022-08-01T12:20:18;101310.91;;;27.87;80.32
59407;BME280;45208;32.616;-115.472;2022-08-01T12:22:46;101310.09;;;27.87;80.12
59407;BME280;45208;32.616;-115.472;2022-08-01T12:25:15;101326.50;;;27.88;80.22
59407;BME280;45208;32.616;-115.472;2022-08-01T12:27:44;101329.28;;;27.88;80.67
59407;BME280;45208;32.616;-115.472;2022-08-01T12:30:21;101320.84;;;27.85;80.42
59407;BME280;45208;32.616;-115.472;2022-08-01T12:32:52;101323.69;;;27.88;81.18
59407;BME280;45208;32.616;-115.472;2022-08-01T12:35:22;101318.84;;;27.85;80.71
59407;BME280;45208;32.616;-115.472;2022-08-01T12:37:50;101324.34;;;27.82;81.20
59407;BME280;45208;32.616;-115.472;2022-08-01T12:40:44;101330.75;;;27.82;81.40
59407;BME280;45208;32.616;-115.472;2022-08-01T12:43:14;101336.31;;;27.82;81.56
59407;BME280;45208;32.616;-115.472;2022-08-01T12:45:43;101337.97;;;27.83;81.20
59407;BME280;45208;32.616;-115.472;2022-08-01T12:48:13;101337.97;;;27.83;81.41
59407;BME280;45208;32.616;-115.472;2022-08-01T12:50:43;101340.66;;;27.80;81.19
59407;BME280;45208;32.616;-115.472;2022-08-01T12:53:10;101329.84;;;27.78;80.35
59407;BME280;45208;32.616;-115.472;2022-08-01T12:55:48;101337.50;;;27.81;80.95
59407;BME280;45208;32.616;-115.472;2022-08-01T12:58:17;101341.03;;;27.78;81.53
59407;BME280;45208;32.616;-115.472;2022-08-01T13:00:46;101343.09;;;27.81;81.62